sensor_id;sensor_type;location;lat;lon;timestamp;temperature;humidity
12907;DHT22;6521;50.498;8.474;2022-09-09T00:05:05;16.55;76.20
12907;DHT22;6521;50.498;8.474;2022-09-09T00:07:47;16.48;76.36
12907;DHT22;6521;50.498;8.474;2022-09-09T00:10:30;16.48;76.38
12907;DHT22;6521;50.498;8.474;2022-09-09T00:16:00;16.47;76.36
12907;DHT22;6521;50.498;8.474;2022-09-09T00:21:13;16.32;77.11
12907;DHT22;6521;50.498;8.474;2022-09-09T00:23:50;16.35;77.17
12907;DHT22;6521;50.498;8.474;2022-09-09T00:26:44;16.32;77.28
12907;DHT22;6521;50.498;8.474;2022-09-09T00:29:25;16.28;77.46
12907;DHT22;6521;50.498;8.474;2022-09-09T00:32:18;16.34;77.43
12907;DHT22;6521;50.498;8.474;2022-09-09T00:35:00;16.29;77.47
12907;DHT22;6521;50.498;8.474;2022-09-09T00:37:32;16.28;77.64
12907;DHT22;6521;50.498;8.474;2022-09-09T00:40:16;16.21;77.90
12907;DHT22;6521;50.498;8.474;2022-09-09T00:42:58;16.13;78.20
12907;DHT22;6521;50.498;8.474;2022-09-09T00:48:54;16.14;78.11
12907;DHT22;6521;50.498;8.474;2022-09-09T00:57:28;16.27;77.32
12907;DHT22;6521;50.498;8.474;2022-09-09T01:02:56;16.32;77.13
12907;DHT22;6521;50.498;8.474;2022-09-09T01:06:11;16.41;76.86
12907;DHT22;6521;50.498;8.474;2022-09-09T01:17:24;16.29;77.28
12907;DHT22;6521;50.498;8.474;2022-09-09T01:20:10;16.28;77.24
12907;DHT22;6521;50.498;8.474;2022-09-09T01:22:56;16.28;77.29
12907;DHT22;6521;50.498;8.474;2022-09-09T01:28:44;16.22;77.36
12907;DHT22;6521;50.498;8.474;2022-09-09T01:31:23;16.32;77.06
12907;DHT22;6521;50.498;8.474;2022-09-09T01:33:56;16.32;76.85
12907;DHT22;6521;50.498;8.474;2022-09-09T01:36:43;16.40;76.68
12907;DHT22;6521;50.498;8.474;2022-09-09T01:39:16;16.41;76.70
12907;DHT22;6521;50.498;8.474;2022-09-09T01:41:49;16.42;76.68
12907;DHT22;6521;50.498;8.474;2022-09-09T01:44:22;16.38;76.97
12907;DHT22;6521;50.498;8.474;2022-09-09T01:46:53;16.37;76.91
12907;DHT22;6521;50.498;8.474;2022-09-09T01:49:26;16.40;76.91
12907;DHT22;6521;50.498;8.474;2022-09-09T01:51:57;16.41;76.57
12907;DHT22;6521;50.498;8.474;2022-09-09T01:54:33;16.44;76.51
12907;DHT22;6521;50.498;8.474;2022-09-09T01:57:33;16.38;76.68
12907;DHT22;6521;50.498;8.474;2022-09-09T02:00:09;16.41;76.52
12907;DHT22;6521;50.498;8.474;2022-09-09T02:03:10;16.40;76.63
12907;DHT22;6521;50.498;8.474;2022-09-09T02:06:05;16.42;76.50
12907;DHT22;6521;50.498;8.474;2022-09-09T02:08:49;16.41;76.58
12907;DHT22;6521;50.498;8.474;2022-09-09T02:11:26;16.40;76.69
12907;DHT22;6521;50.498;8.474;2022-09-09T02:14:23;16.38;76.75
12907;DHT22;6521;50.498;8.474;2022-09-09T02:17:06;16.31;77.11
12907;DHT22;6521;50.498;8.474;2022-09-09T02:20:13;16.29;77.28
12907;DHT22;6521;50.498;8.474;2022-09-09T02:22:56;16.27;77.42
12907;DHT22;6521;50.498;8.474;2022-09-09T02:25:29;16.31;77.33
12907;DHT22;6521;50.498;8.474;2022-09-09T02:28:07;16.25;77.75
12907;DHT22;6521;50.498;8.474;2022-09-09T02:30:42;16.28;77.67
12907;DHT22;6521;50.498;8.474;2022-09-09T02:33:16;16.24;77.83
12907;DHT22;6521;50.498;8.474;2022-09-09T02:35:51;16.25;77.96
12907;DHT22;6521;50.498;8.474;2022-09-09T02:38:27;16.28;77.95
12907;DHT22;6521;50.498;8.474;2022-09-09T02:41:09;16.22;78.06
12907;DHT22;6521;50.498;8.474;2022-09-09T02:43:41;16.22;78.17
12907;DHT22;6521;50.498;8.474;2022-09-09T02:52:08;16.16;78.45
12907;DHT22;6521;50.498;8.474;2022-09-09T02:54:43;16.11;78.67
12907;DHT22;6521;50.498;8.474;2022-09-09T02:57:19;16.10;78.73
12907;DHT22;6521;50.498;8.474;2022-09-09T02:59:53;16.03;78.96
12907;DHT22;6521;50.498;8.474;2022-09-09T03:02:24;15.98;79.23
12907;DHT22;6521;50.498;8.474;2022-09-09T03:04:59;15.93;79.36
12907;DHT22;6521;50.498;8.474;2022-09-09T03:07:31;15.89;79.47
12907;DHT22;6521;50.498;8.474;2022-09-09T03:10:02;15.89;79.71
12907;DHT22;6521;50.498;8.474;2022-09-09T03:12:33;15.93;79.76
12907;DHT22;6521;50.498;8.474;2022-09-09T03:15:05;15.90;79.73
12907;DHT22;6521;50.498;8.474;2022-09-09T03:17:37;15.90;79.90
12907;DHT22;6521;50.498;8.474;2022-09-09T03:20:09;15.94;79.73
12907;DHT22;6521;50.498;8.474;2022-09-09T03:22:41;15.90;79.87
12907;DHT22;6521;50.498;8.474;2022-09-09T03:25:12;15.96;79.60
12907;DHT22;6521;50.498;8.474;2022-09-09T03:27:43;15.96;79.50
12907;DHT22;6521;50.498;8.474;2022-09-09T03:30:15;16.01;79.62
12907;DHT22;6521;50.498;8.474;2022-09-09T03:32:47;16.00;79.35
12907;DHT22;6521;50.498;8.474;2022-09-09T03:35:19;16.06;79.34
12907;DHT22;6521;50.498;8.474;2022-09-09T03:37:49;16.07;79.22
12907;DHT22;6521;50.498;8.474;2022-09-09T03:40:21;16.11;79.07
12907;DHT22;6521;50.498;8.474;2022-09-09T03:42:52;16.13;78.98
12907;DHT22;6521;50.498;8.474;2022-09-09T03:45:23;16.04;79.19
12907;DHT22;6521;50.498;8.474;2022-09-09T03:47:54;16.07;79.24
12907;DHT22;6521;50.498;8.474;2022-09-09T03:50:25;16.08;79.17
12907;DHT22;6521;50.498;8.474;2022-09-09T03:52:56;16.10;79.12
12907;DHT22;6521;50.498;8.474;2022-09-09T03:55:27;16.10;79.14
12907;DHT22;6521;50.498;8.474;2022-09-09T03:57:58;16.06;79.20
12907;DHT22;6521;50.498;8.474;2022-09-09T04:00:28;16.04;79.36
12907;DHT22;6521;50.498;8.474;2022-09-09T04:03:01;16.06;79.21
12907;DHT22;6521;50.498;8.474;2022-09-09T04:05:32;16.03;79.28
12907;DHT22;6521;50.498;8.474;2022-09-09T04:08:05;16.07;79.16
12907;DHT22;6521;50.498;8.474;2022-09-09T04:10:36;16.13;79.04
12907;DHT22;6521;50.498;8.474;2022-09-09T04:13:07;16.07;78.97
12907;DHT22;6521;50.498;8.474;2022-09-09T04:15:38;16.07;79.08
12907;DHT22;6521;50.498;8.474;2022-09-09T04:18:09;16.01;79.22
12907;DHT22;6521;50.498;8.474;2022-09-09T04:20:40;16.03;79.13
12907;DHT22;6521;50.498;8.474;2022-09-09T04:23:11;15.97;79.16
12907;DHT22;6521;50.498;8.474;2022-09-09T04:25:46;15.98;79.13
12907;DHT22;6521;50.498;8.474;2022-09-09T04:28:19;15.93;79.23
12907;DHT22;6521;50.498;8.474;2022-09-09T04:30:50;15.91;79.26
12907;DHT22;6521;50.498;8.474;2022-09-09T04:33:24;15.94;79.09
12907;DHT22;6521;50.498;8.474;2022-09-09T04:35:57;15.86;79.45
12907;DHT22;6521;50.498;8.474;2022-09-09T04:38:29;15.80;79.58
12907;DHT22;6521;50.498;8.474;2022-09-09T04:41:00;15.86;79.59
12907;DHT22;6521;50.498;8.474;2022-09-09T04:43:31;15.86;79.52
12907;DHT22;6521;50.498;8.474;2022-09-09T04:46:04;15.91;79.45
12907;DHT22;6521;50.498;8.474;2022-09-09T04:48:35;15.93;79.36
12907;DHT22;6521;50.498;8.474;2022-09-09T04:51:09;15.89;79.58
12907;DHT22;6521;50.498;8.474;2022-09-09T04:53:41;15.96;79.46
12907;DHT22;6521;50.498;8.474;2022-09-09T04:56:15;15.89;79.54
12907;DHT22;6521;50.498;8.474;2022-09-09T04:58:56;15.85;79.78
12907;DHT22;6521;50.498;8.474;2022-09-09T05:01:31;15.87;79.62
12907;DHT22;6521;50.498;8.474;2022-09-09T05:04:09;15.86;79.73
12907;DHT22;6521;50.498;8.474;2022-09-09T05:06:40;15.90;79.64
12907;DHT22;6521;50.498;8.474;2022-09-09T05:09:10;15.93;79.35
12907;DHT22;6521;50.498;8.474;2022-09-09T05:11:41;15.89;79.47
12907;DHT22;6521;50.498;8.474;2022-09-09T05:14:18;15.94;79.24
12907;DHT22;6521;50.498;8.474;2022-09-09T05:16:49;15.93;79.21
12907;DHT22;6521;50.498;8.474;2022-09-09T05:19:20;15.93;79.17
12907;DHT22;6521;50.498;8.474;2022-09-09T05:21:53;15.91;79.15
12907;DHT22;6521;50.498;8.474;2022-09-09T05:24:28;15.89;79.11
12907;DHT22;6521;50.498;8.474;2022-09-09T05:27:02;15.86;79.35
12907;DHT22;6521;50.498;8.474;2022-09-09T05:29:33;15.87;79.44
12907;DHT22;6521;50.498;8.474;2022-09-09T05:32:04;15.83;79.59
12907;DHT22;6521;50.498;8.474;2022-09-09T05:34:35;15.86;79.63
12907;DHT22;6521;50.498;8.474;2022-09-09T05:37:07;15.91;79.51
12907;DHT22;6521;50.498;8.474;2022-09-09T05:39:39;15.97;79.31
12907;DHT22;6521;50.498;8.474;2022-09-09T05:42:10;15.93;79.42
12907;DHT22;6521;50.498;8.474;2022-09-09T05:44:41;15.94;79.26
12907;DHT22;6521;50.498;8.474;2022-09-09T05:47:12;16.03;78.96
12907;DHT22;6521;50.498;8.474;2022-09-09T05:49:43;15.97;79.15
12907;DHT22;6521;50.498;8.474;2022-09-09T05:52:14;15.96;79.35
12907;DHT22;6521;50.498;8.474;2022-09-09T05:54:45;15.97;79.34
12907;DHT22;6521;50.498;8.474;2022-09-09T05:57:16;16.01;79.27
12907;DHT22;6521;50.498;8.474;2022-09-09T05:59:48;16.07;78.95
12907;DHT22;6521;50.498;8.474;2022-09-09T06:02:20;16.07;78.87
12907;DHT22;6521;50.498;8.474;2022-09-09T06:04:51;16.14;78.78
12907;DHT22;6521;50.498;8.474;2022-09-09T06:07:22;16.16;78.70
12907;DHT22;6521;50.498;8.474;2022-09-09T06:09:53;16.16;78.62
12907;DHT22;6521;50.498;8.474;2022-09-09T06:12:23;16.17;78.86
12907;DHT22;6521;50.498;8.474;2022-09-09T06:14:54;16.21;78.87
12907;DHT22;6521;50.498;8.474;2022-09-09T06:17:25;16.24;79.06
12907;DHT22;6521;50.498;8.474;2022-09-09T06:19:56;16.28;78.42
12907;DHT22;6521;50.498;8.474;2022-09-09T06:22:27;16.28;78.38
12907;DHT22;6521;50.498;8.474;2022-09-09T06:24:58;16.27;78.52
12907;DHT22;6521;50.498;8.474;2022-09-09T06:27:29;16.31;78.20
12907;DHT22;6521;50.498;8.474;2022-09-09T06:30:00;16.29;78.22
12907;DHT22;6521;50.498;8.474;2022-09-09T06:32:33;16.24;78.38
12907;DHT22;6521;50.498;8.474;2022-09-09T06:35:06;16.27;78.73
12907;DHT22;6521;50.498;8.474;2022-09-09T06:37:36;16.20;78.63
12907;DHT22;6521;50.498;8.474;2022-09-09T06:40:08;16.22;78.90
12907;DHT22;6521;50.498;8.474;2022-09-09T06:42:39;16.29;79.06
12907;DHT22;6521;50.498;8.474;2022-09-09T06:45:37;16.41;78.31
12907;DHT22;6521;50.498;8.474;2022-09-09T06:48:08;16.49;77.98
12907;DHT22;6521;50.498;8.474;2022-09-09T06:50:39;16.64;77.65
12907;DHT22;6521;50.498;8.474;2022-09-09T06:53:10;16.76;77.29
12907;DHT22;6521;50.498;8.474;2022-09-09T06:55:41;16.93;76.27
12907;DHT22;6521;50.498;8.474;2022-09-09T06:58:16;16.90;76.36
12907;DHT22;6521;50.498;8.474;2022-09-09T07:00:49;16.93;76.31
12907;DHT22;6521;50.498;8.474;2022-09-09T07:03:20;16.96;75.94
12907;DHT22;6521;50.498;8.474;2022-09-09T07:05:56;17.03;75.99
12907;DHT22;6521;50.498;8.474;2022-09-09T07:08:28;17.17;75.90
12907;DHT22;6521;50.498;8.474;2022-09-09T07:11:07;17.22;75.97
12907;DHT22;6521;50.498;8.474;2022-09-09T07:13:40;17.31;75.01
12907;DHT22;6521;50.498;8.474;2022-09-09T07:16:16;17.41;74.89
12907;DHT22;6521;50.498;8.474;2022-09-09T07:18:47;17.53;74.52
12907;DHT22;6521;50.498;8.474;2022-09-09T07:21:18;17.65;73.42
12907;DHT22;6521;50.498;8.474;2022-09-09T07:23:49;17.64;73.88
12907;DHT22;6521;50.498;8.474;2022-09-09T07:26:27;17.61;73.37
12907;DHT22;6521;50.498;8.474;2022-09-09T07:28:59;17.65;72.33
12907;DHT22;6521;50.498;8.474;2022-09-09T07:31:32;17.51;72.80
12907;DHT22;6521;50.498;8.474;2022-09-09T07:34:04;17.54;72.52
12907;DHT22;6521;50.498;8.474;2022-09-09T07:36:37;17.55;72.67
12907;DHT22;6521;50.498;8.474;2022-09-09T07:39:11;17.60;72.55
12907;DHT22;6521;50.498;8.474;2022-09-09T07:41:46;17.53;71.86
12907;DHT22;6521;50.498;8.474;2022-09-09T07:44:21;17.50;72.13
12907;DHT22;6521;50.498;8.474;2022-09-09T07:46:55;17.60;71.62
12907;DHT22;6521;50.498;8.474;2022-09-09T07:49:31;17.65;71.40
12907;DHT22;6521;50.498;8.474;2022-09-09T07:52:05;17.58;71.25
12907;DHT22;6521;50.498;8.474;2022-09-09T07:54:37;17.60;71.38
12907;DHT22;6521;50.498;8.474;2022-09-09T07:57:09;17.45;71.27
12907;DHT22;6521;50.498;8.474;2022-09-09T07:59:42;17.43;71.43
12907;DHT22;6521;50.498;8.474;2022-09-09T08:02:12;17.37;70.84
12907;DHT22;6521;50.498;8.474;2022-09-09T08:04:43;17.48;71.22
12907;DHT22;6521;50.498;8.474;2022-09-09T08:07:14;17.48;71.02
12907;DHT22;6521;50.498;8.474;2022-09-09T08:09:52;17.53;71.26
12907;DHT22;6521;50.498;8.474;2022-09-09T08:12:27;17.53;71.03
12907;DHT22;6521;50.498;8.474;2022-09-09T08:14:58;17.43;70.44
12907;DHT22;6521;50.498;8.474;2022-09-09T08:17:33;17.31;70.96
12907;DHT22;6521;50.498;8.474;2022-09-09T08:20:08;17.47;70.91
12907;DHT22;6521;50.498;8.474;2022-09-09T08:22:39;17.51;70.34
12907;DHT22;6521;50.498;8.474;2022-09-09T08:25:10;17.54;70.86
12907;DHT22;6521;50.498;8.474;2022-09-09T08:27:41;17.60;70.98
12907;DHT22;6521;50.498;8.474;2022-09-09T08:30:12;17.67;70.74
12907;DHT22;6521;50.498;8.474;2022-09-09T08:32:45;17.68;70.29
12907;DHT22;6521;50.498;8.474;2022-09-09T08:35:17;17.77;69.62
12907;DHT22;6521;50.498;8.474;2022-09-09T08:37:53;17.92;69.96
12907;DHT22;6521;50.498;8.474;2022-09-09T08:40:29;17.93;69.92
12907;DHT22;6521;50.498;8.474;2022-09-09T08:43:02;18.22;68.40
12907;DHT22;6521;50.498;8.474;2022-09-09T08:45:38;18.25;67.99
12907;DHT22;6521;50.498;8.474;2022-09-09T08:48:22;18.37;68.30
12907;DHT22;6521;50.498;8.474;2022-09-09T08:50:57;18.47;67.21
12907;DHT22;6521;50.498;8.474;2022-09-09T08:53:42;18.59;67.26
12907;DHT22;6521;50.498;8.474;2022-09-09T08:56:18;18.94;66.95
12907;DHT22;6521;50.498;8.474;2022-09-09T08:58:56;18.91;65.45
12907;DHT22;6521;50.498;8.474;2022-09-09T09:05:09;19.30;64.64
12907;DHT22;6521;50.498;8.474;2022-09-09T09:10:56;19.42;63.94
12907;DHT22;6521;50.498;8.474;2022-09-09T09:13:45;19.35;64.11
12907;DHT22;6521;50.498;8.474;2022-09-09T09:16:26;19.43;63.00
12907;DHT22;6521;50.498;8.474;2022-09-09T09:18:59;19.38;62.86
12907;DHT22;6521;50.498;8.474;2022-09-09T09:21:42;19.67;60.54
12907;DHT22;6521;50.498;8.474;2022-09-09T09:24:27;20.08;60.37
12907;DHT22;6521;50.498;8.474;2022-09-09T09:27:30;20.59;58.25
12907;DHT22;6521;50.498;8.474;2022-09-09T09:30:13;21.26;55.91
12907;DHT22;6521;50.498;8.474;2022-09-09T09:32:52;21.00;55.15
12907;DHT22;6521;50.498;8.474;2022-09-09T09:35:23;21.26;56.33
12907;DHT22;6521;50.498;8.474;2022-09-09T09:37:55;21.14;54.29
12907;DHT22;6521;50.498;8.474;2022-09-09T09:40:27;21.65;54.21
12907;DHT22;6521;50.498;8.474;2022-09-09T09:43:00;22.03;50.69
12907;DHT22;6521;50.498;8.474;2022-09-09T09:45:35;21.98;52.23
12907;DHT22;6521;50.498;8.474;2022-09-09T09:48:13;21.62;51.89
12907;DHT22;6521;50.498;8.474;2022-09-09T09:53:26;21.55;53.73
12907;DHT22;6521;50.498;8.474;2022-09-09T09:56:04;20.86;56.87
12907;DHT22;6521;50.498;8.474;2022-09-09T09:58:57;20.25;59.47
12907;DHT22;6521;50.498;8.474;2022-09-09T10:01:35;19.74;63.72
12907;DHT22;6521;50.498;8.474;2022-09-09T10:04:16;19.40;62.09
12907;DHT22;6521;50.498;8.474;2022-09-09T10:06:47;19.15;65.66
12907;DHT22;6521;50.498;8.474;2022-09-09T10:09:36;19.14;66.28
12907;DHT22;6521;50.498;8.474;2022-09-09T10:12:47;19.07;67.48
12907;DHT22;6521;50.498;8.474;2022-09-09T10:15:42;18.83;69.56
12907;DHT22;6521;50.498;8.474;2022-09-09T10:21:20;18.51;71.00
12907;DHT22;6521;50.498;8.474;2022-09-09T10:32:33;18.77;73.39
12907;DHT22;6521;50.498;8.474;2022-09-09T10:35:24;18.57;72.14
12907;DHT22;6521;50.498;8.474;2022-09-09T10:46:12;17.64;74.63
12907;DHT22;6521;50.498;8.474;2022-09-09T10:51:42;19.07;72.86
12907;DHT22;6521;50.498;8.474;2022-09-09T10:57:33;19.73;67.12
12907;DHT22;6521;50.498;8.474;2022-09-09T11:00:06;19.30;67.25
12907;DHT22;6521;50.498;8.474;2022-09-09T11:02:48;19.21;70.89
12907;DHT22;6521;50.498;8.474;2022-09-09T11:05:28;19.21;68.72
12907;DHT22;6521;50.498;8.474;2022-09-09T11:08:17;19.16;70.05
12907;DHT22;6521;50.498;8.474;2022-09-09T11:16:30;20.86;65.43
12907;DHT22;6521;50.498;8.474;2022-09-09T11:19:44;21.07;63.38
12907;DHT22;6521;50.498;8.474;2022-09-09T11:22:12;20.71;64.23
12907;DHT22;6521;50.498;8.474;2022-09-09T11:25:16;20.41;65.20
12907;DHT22;6521;50.498;8.474;2022-09-09T11:28:07;19.93;65.15
12907;DHT22;6521;50.498;8.474;2022-09-09T11:33:55;19.88;65.22
12907;DHT22;6521;50.498;8.474;2022-09-09T11:36:47;19.84;64.98
12907;DHT22;6521;50.498;8.474;2022-09-09T11:39:35;19.69;64.28
12907;DHT22;6521;50.498;8.474;2022-09-09T11:44:46;19.55;64.00
12907;DHT22;6521;50.498;8.474;2022-09-09T11:47:28;19.58;64.74
12907;DHT22;6521;50.498;8.474;2022-09-09T11:50:28;19.48;64.52
12907;DHT22;6521;50.498;8.474;2022-09-09T11:55:44;19.43;63.96
12907;DHT22;6521;50.498;8.474;2022-09-09T11:58:17;19.49;63.64
12907;DHT22;6521;50.498;8.474;2022-09-09T12:00:49;20.07;64.02
12907;DHT22;6521;50.498;8.474;2022-09-09T12:06:31;21.47;58.21
12907;DHT22;6521;50.498;8.474;2022-09-09T12:17:25;20.49;56.31
12907;DHT22;6521;50.498;8.474;2022-09-09T12:20:37;20.35;57.72
12907;DHT22;6521;50.498;8.474;2022-09-09T12:23:22;20.27;58.52
12907;DHT22;6521;50.498;8.474;2022-09-09T12:28:39;20.35;58.89
12907;DHT22;6521;50.498;8.474;2022-09-09T12:31:44;20.29;56.57
12907;DHT22;6521;50.498;8.474;2022-09-09T12:39:51;19.90;56.23
12907;DHT22;6521;50.498;8.474;2022-09-09T12:42:25;19.93;56.49
12907;DHT22;6521;50.498;8.474;2022-09-09T12:45:01;20.07;56.76
12907;DHT22;6521;50.498;8.474;2022-09-09T12:47:44;20.89;55.09
12907;DHT22;6521;50.498;8.474;2022-09-09T12:50:21;21.48;53.02
12907;DHT22;6521;50.498;8.474;2022-09-09T12:52:56;22.02;52.92
12907;DHT22;6521;50.498;8.474;2022-09-09T12:55:32;22.17;49.26
12907;DHT22;6521;50.498;8.474;2022-09-09T12:58:05;21.88;50.77
12907;DHT22;6521;50.498;8.474;2022-09-09T13:00:36;21.35;51.71
12907;DHT22;6521;50.498;8.474;2022-09-09T13:03:19;21.23;53.23
12907;DHT22;6521;50.498;8.474;2022-09-09T13:05:51;20.92;53.40
12907;DHT22;6521;50.498;8.474;2022-09-09T13:08:23;20.41;54.38
12907;DHT22;6521;50.498;8.474;2022-09-09T13:11:06;20.01;56.12
12907;DHT22;6521;50.498;8.474;2022-09-09T13:13:39;19.83;56.41
12907;DHT22;6521;50.498;8.474;2022-09-09T13:16:24;19.55;57.00
12907;DHT22;6521;50.498;8.474;2022-09-09T13:18:56;19.33;59.15
12907;DHT22;6521;50.498;8.474;2022-09-09T13:21:36;18.70;66.29
12907;DHT22;6521;50.498;8.474;2022-09-09T13:24:33;18.39;68.87
12907;DHT22;6521;50.498;8.474;2022-09-09T13:27:25;17.81;72.01
12907;DHT22;6521;50.498;8.474;2022-09-09T13:29:56;17.40;73.37
12907;DHT22;6521;50.498;8.474;2022-09-09T13:32:31;17.30;75.54
12907;DHT22;6521;50.498;8.474;2022-09-09T13:35:02;17.71;76.22
12907;DHT22;6521;50.498;8.474;2022-09-09T13:37:35;18.28;73.72
12907;DHT22;6521;50.498;8.474;2022-09-09T13:40:17;19.00;72.25
12907;DHT22;6521;50.498;8.474;2022-09-09T13:42:52;19.63;67.61
12907;DHT22;6521;50.498;8.474;2022-09-09T13:45:25;20.08;68.20
12907;DHT22;6521;50.498;8.474;2022-09-09T13:48:08;20.41;66.64
12907;DHT22;6521;50.498;8.474;2022-09-09T13:50:39;20.61;64.65
12907;DHT22;6521;50.498;8.474;2022-09-09T13:53:11;20.96;65.88
12907;DHT22;6521;50.498;8.474;2022-09-09T13:55:42;20.96;64.84
12907;DHT22;6521;50.498;8.474;2022-09-09T13:58:17;21.20;65.26
12907;DHT22;6521;50.498;8.474;2022-09-09T14:00:52;21.55;66.05
12907;DHT22;6521;50.498;8.474;2022-09-09T14:03:23;21.96;63.40
12907;DHT22;6521;50.498;8.474;2022-09-09T14:05:54;22.23;61.25
12907;DHT22;6521;50.498;8.474;2022-09-09T14:08:26;22.23;60.84
12907;DHT22;6521;50.498;8.474;2022-09-09T14:10:58;21.64;58.83
12907;DHT22;6521;50.498;8.474;2022-09-09T14:13:29;21.16;60.20
12907;DHT22;6521;50.498;8.474;2022-09-09T14:16:00;20.90;63.07
12907;DHT22;6521;50.498;8.474;2022-09-09T14:18:31;20.64;64.79
12907;DHT22;6521;50.498;8.474;2022-09-09T14:21:02;20.35;65.26
12907;DHT22;6521;50.498;8.474;2022-09-09T14:23:33;20.13;66.30
12907;DHT22;6521;50.498;8.474;2022-09-09T14:26:05;19.97;69.70
12907;DHT22;6521;50.498;8.474;2022-09-09T14:28:36;19.36;67.50
12907;DHT22;6521;50.498;8.474;2022-09-09T14:31:07;19.18;65.09
12907;DHT22;6521;50.498;8.474;2022-09-09T14:33:38;19.00;67.00
12907;DHT22;6521;50.498;8.474;2022-09-09T14:36:09;18.90;66.97
12907;DHT22;6521;50.498;8.474;2022-09-09T14:38:40;18.83;68.24
12907;DHT22;6521;50.498;8.474;2022-09-09T14:41:14;18.61;70.11
12907;DHT22;6521;50.498;8.474;2022-09-09T14:43:47;18.42;71.62
12907;DHT22;6521;50.498;8.474;2022-09-09T14:46:19;18.19;72.71
12907;DHT22;6521;50.498;8.474;2022-09-09T14:48:50;17.89;71.61
12907;DHT22;6521;50.498;8.474;2022-09-09T14:51:23;17.92;72.58
12907;DHT22;6521;50.498;8.474;2022-09-09T14:53:57;17.78;73.59
12907;DHT22;6521;50.498;8.474;2022-09-09T14:56:31;17.67;73.73
12907;DHT22;6521;50.498;8.474;2022-09-09T14:59:02;17.67;75.10
12907;DHT22;6521;50.498;8.474;2022-09-09T15:01:33;17.70;73.73
12907;DHT22;6521;50.498;8.474;2022-09-09T15:04:05;17.84;74.93
12907;DHT22;6521;50.498;8.474;2022-09-09T15:06:36;18.06;75.16
12907;DHT22;6521;50.498;8.474;2022-09-09T15:09:08;18.40;75.60
12907;DHT22;6521;50.498;8.474;2022-09-09T15:11:39;18.71;75.15
12907;DHT22;6521;50.498;8.474;2022-09-09T15:14:09;18.85;74.00
12907;DHT22;6521;50.498;8.474;2022-09-09T15:16:40;19.02;72.36
12907;DHT22;6521;50.498;8.474;2022-09-09T15:19:11;18.87;70.75
12907;DHT22;6521;50.498;8.474;2022-09-09T15:21:42;18.88;71.11
12907;DHT22;6521;50.498;8.474;2022-09-09T15:24:13;18.74;71.06
12907;DHT22;6521;50.498;8.474;2022-09-09T15:26:43;18.61;70.59
12907;DHT22;6521;50.498;8.474;2022-09-09T15:29:14;18.49;70.90
12907;DHT22;6521;50.498;8.474;2022-09-09T15:31:45;18.47;71.25
12907;DHT22;6521;50.498;8.474;2022-09-09T15:34:17;18.42;68.76
12907;DHT22;6521;50.498;8.474;2022-09-09T15:36:48;18.14;69.37
12907;DHT22;6521;50.498;8.474;2022-09-09T15:39:19;17.96;70.85
12907;DHT22;6521;50.498;8.474;2022-09-09T15:41:49;17.75;71.30
12907;DHT22;6521;50.498;8.474;2022-09-09T15:44:21;17.64;70.48
12907;DHT22;6521;50.498;8.474;2022-09-09T15:46:55;17.48;71.51
12907;DHT22;6521;50.498;8.474;2022-09-09T15:49:26;17.38;70.79
12907;DHT22;6521;50.498;8.474;2022-09-09T15:51:59;17.28;72.12
12907;DHT22;6521;50.498;8.474;2022-09-09T15:54:34;17.23;72.54
12907;DHT22;6521;50.498;8.474;2022-09-09T15:57:07;17.16;72.49
12907;DHT22;6521;50.498;8.474;2022-09-09T15:59:38;17.17;72.97
12907;DHT22;6521;50.498;8.474;2022-09-09T16:02:10;17.12;74.07
12907;DHT22;6521;50.498;8.474;2022-09-09T16:04:41;17.07;74.69
12907;DHT22;6521;50.498;8.474;2022-09-09T16:07:11;16.95;74.87
12907;DHT22;6521;50.498;8.474;2022-09-09T16:09:42;16.95;75.25
12907;DHT22;6521;50.498;8.474;2022-09-09T16:12:13;17.04;75.68
12907;DHT22;6521;50.498;8.474;2022-09-09T16:14:44;17.04;76.19
12907;DHT22;6521;50.498;8.474;2022-09-09T16:17:15;16.96;76.17
12907;DHT22;6521;50.498;8.474;2022-09-09T16:19:46;16.92;76.97
12907;DHT22;6521;50.498;8.474;2022-09-09T16:22:17;16.89;77.22
12907;DHT22;6521;50.498;8.474;2022-09-09T16:24:48;16.83;78.58
12907;DHT22;6521;50.498;8.474;2022-09-09T16:27:18;16.77;80.31
12907;DHT22;6521;50.498;8.474;2022-09-09T16:29:49;16.65;81.53
12907;DHT22;6521;50.498;8.474;2022-09-09T16:32:20;16.52;82.86
12907;DHT22;6521;50.498;8.474;2022-09-09T16:34:51;16.42;83.45
12907;DHT22;6521;50.498;8.474;2022-09-09T16:37:22;16.40;83.94
12907;DHT22;6521;50.498;8.474;2022-09-09T16:39:52;16.29;84.58
12907;DHT22;6521;50.498;8.474;2022-09-09T16:42:25;16.24;84.75
12907;DHT22;6521;50.498;8.474;2022-09-09T16:44:56;16.22;85.39
12907;DHT22;6521;50.498;8.474;2022-09-09T16:47:26;16.25;85.06
12907;DHT22;6521;50.498;8.474;2022-09-09T16:49:57;16.28;85.12
12907;DHT22;6521;50.498;8.474;2022-09-09T16:52:28;16.29;85.35
12907;DHT22;6521;50.498;8.474;2022-09-09T16:54:58;16.29;85.61
12907;DHT22;6521;50.498;8.474;2022-09-09T16:57:29;16.35;85.67
12907;DHT22;6521;50.498;8.474;2022-09-09T17:00:01;16.34;85.95
12907;DHT22;6521;50.498;8.474;2022-09-09T17:02:35;16.37;85.95
12907;DHT22;6521;50.498;8.474;2022-09-09T17:05:05;16.47;85.79
12907;DHT22;6521;50.498;8.474;2022-09-09T17:07:36;16.45;85.62
12907;DHT22;6521;50.498;8.474;2022-09-09T17:10:07;16.45;85.54
12907;DHT22;6521;50.498;8.474;2022-09-09T17:12:38;16.51;84.50
12907;DHT22;6521;50.498;8.474;2022-09-09T17:15:10;16.44;84.28
12907;DHT22;6521;50.498;8.474;2022-09-09T17:17:41;16.41;83.31
12907;DHT22;6521;50.498;8.474;2022-09-09T17:20:15;16.34;83.36
12907;DHT22;6521;50.498;8.474;2022-09-09T17:22:47;16.27;83.31
12907;DHT22;6521;50.498;8.474;2022-09-09T17:25:17;16.21;82.79
12907;DHT22;6521;50.498;8.474;2022-09-09T17:27:48;16.16;83.10
12907;DHT22;6521;50.498;8.474;2022-09-09T17:30:18;16.16;83.06
12907;DHT22;6521;50.498;8.474;2022-09-09T17:32:49;16.07;82.36
12907;DHT22;6521;50.498;8.474;2022-09-09T17:35:20;15.98;82.16
12907;DHT22;6521;50.498;8.474;2022-09-09T17:37:52;15.86;82.66
12907;DHT22;6521;50.498;8.474;2022-09-09T17:40:23;15.77;83.10
12907;DHT22;6521;50.498;8.474;2022-09-09T17:42:56;15.73;82.57
12907;DHT22;6521;50.498;8.474;2022-09-09T17:45:28;15.65;82.98
12907;DHT22;6521;50.498;8.474;2022-09-09T17:48:00;15.56;82.29
12907;DHT22;6521;50.498;8.474;2022-09-09T17:50:31;15.55;82.34
12907;DHT22;6521;50.498;8.474;2022-09-09T17:53:04;15.50;82.51
12907;DHT22;6521;50.498;8.474;2022-09-09T17:55:34;15.45;83.05
12907;DHT22;6521;50.498;8.474;2022-09-09T17:58:05;15.48;82.96
12907;DHT22;6521;50.498;8.474;2022-09-09T18:00:36;15.49;82.85
12907;DHT22;6521;50.498;8.474;2022-09-09T18:03:07;15.48;83.07
12907;DHT22;6521;50.498;8.474;2022-09-09T18:05:38;15.46;83.16
12907;DHT22;6521;50.498;8.474;2022-09-09T18:08:09;15.48;83.03
12907;DHT22;6521;50.498;8.474;2022-09-09T18:10:40;15.49;83.29
12907;DHT22;6521;50.498;8.474;2022-09-09T18:13:11;15.43;83.41
12907;DHT22;6521;50.498;8.474;2022-09-09T18:15:42;15.38;83.88
12907;DHT22;6521;50.498;8.474;2022-09-09T18:18:13;15.38;83.53
12907;DHT22;6521;50.498;8.474;2022-09-09T18:20:46;15.34;83.62
12907;DHT22;6521;50.498;8.474;2022-09-09T18:23:16;15.35;83.81